sensor_id;sensor_type;location;lat;lon;timestamp;temperature;humidity
30186;DHT22;31152;49.190;8.122;2024-02-28T00:01:15;7.10;99.90
30186;DHT22;31152;49.190;8.122;2024-02-28T00:03:42;7.10;99.90
30186;DHT22;31152;49.190;8.122;2024-02-28T00:06:09;7.10;99.90
30186;DHT22;31152;49.190;8.122;2024-02-28T00:08:38;7.10;99.90
30186;DHT22;31152;49.190;8.122;2024-02-28T00:11:05;7.10;99.90
30186;DHT22;31152;49.190;8.122;2024-02-28T00:13:31;7.10;99.90
30186;DHT22;31152;49.190;8.122;2024-02-28T00:15:58;7.10;99.90
30186;DHT22;31152;49.190;8.122;2024-02-28T00:18:25;7.10;99.90
30186;DHT22;31152;49.190;8.122;2024-02-28T00:20:51;7.00;99.90
30186;DHT22;31152;49.190;8.122;2024-02-28T00:23:18;7.00;99.90
30186;DHT22;31152;49.190;8.122;2024-02-28T00:25:45;6.90;99.90
30186;DHT22;31152;49.190;8.122;2024-02-28T00:28:12;6.90;99.90
30186;DHT22;31152;49.190;8.122;2024-02-28T00:30:41;6.90;99.90
30186;DHT22;31152;49.190;8.122;2024-02-28T00:33:08;6.90;99.90
30186;DHT22;31152;49.190;8.122;2024-02-28T00:35:35;6.80;99.90
30186;DHT22;31152;49.190;8.122;2024-02-28T00:38:04;6.80;99.90
30186;DHT22;31152;49.190;8.122;2024-02-28T00:40:31;6.70;99.90
30186;DHT22;31152;49.190;8.122;2024-02-28T00:42:58;6.70;99.90
30186;DHT22;31152;49.190;8.122;2024-02-28T00:45:25;6.80;99.90
30186;DHT22;31152;49.190;8.122;2024-02-28T00:47:54;6.70;99.90
30186;DHT22;31152;49.190;8.122;2024-02-28T00:50:21;6.80;99.90
30186;DHT22;31152;49.190;8.122;2024-02-28T00:52:48;6.70;99.90
30186;DHT22;31152;49.190;8.122;2024-02-28T00:55:15;6.70;99.90
30186;DHT22;31152;49.190;8.122;2024-02-28T00:57:42;6.60;99.90
30186;DHT22;31152;49.190;8.122;2024-02-28T01:00:08;6.60;99.90
30186;DHT22;31152;49.190;8.122;2024-02-28T01:02:36;6.60;99.90
30186;DHT22;31152;49.190;8.122;2024-02-28T01:05:03;6.60;99.90
30186;DHT22;31152;49.190;8.122;2024-02-28T01:07:30;6.50;99.90
30186;DHT22;31152;49.190;8.122;2024-02-28T01:09:56;6.60;99.90
30186;DHT22;31152;49.190;8.122;2024-02-28T01:12:23;6.50;99.90
30186;DHT22;31152;49.190;8.122;2024-02-28T01:14:50;6.50;99.90
30186;DHT22;31152;49.190;8.122;2024-02-28T01:17:17;6.50;99.90
30186;DHT22;31152;49.190;8.122;2024-02-28T01:19:43;6.50;99.90
30186;DHT22;31152;49.190;8.122;2024-02-28T01:22:10;6.40;99.90
30186;DHT22;31152;49.190;8.122;2024-02-28T01:24:37;6.40;99.90
30186;DHT22;31152;49.190;8.122;2024-02-28T01:27:07;6.40;99.90
30186;DHT22;31152;49.190;8.122;2024-02-28T01:29:33;6.30;99.90
30186;DHT22;31152;49.190;8.122;2024-02-28T01:32:00;6.30;99.90
30186;DHT22;31152;49.190;8.122;2024-02-28T01:34:27;6.30;99.90
30186;DHT22;31152;49.190;8.122;2024-02-28T01:36:53;6.30;99.90
30186;DHT22;31152;49.190;8.122;2024-02-28T01:39:23;6.30;99.90
30186;DHT22;31152;49.190;8.122;2024-02-28T01:41:50;6.20;99.90
30186;DHT22;31152;49.190;8.122;2024-02-28T01:44:17;6.10;99.90
30186;DHT22;31152;49.190;8.122;2024-02-28T01:46:44;6.00;99.90
30186;DHT22;31152;49.190;8.122;2024-02-28T01:49:11;5.90;99.90
30186;DHT22;31152;49.190;8.122;2024-02-28T01:51:38;5.70;99.90
30186;DHT22;31152;49.190;8.122;2024-02-28T01:54:05;5.60;99.90
30186;DHT22;31152;49.190;8.122;2024-02-28T01:56:32;5.60;99.90
30186;DHT22;31152;49.190;8.122;2024-02-28T01:59:01;5.60;99.90
30186;DHT22;31152;49.190;8.122;2024-02-28T02:01:28;5.50;99.90
30186;DHT22;31152;49.190;8.122;2024-02-28T02:03:55;5.50;99.90
30186;DHT22;31152;49.190;8.122;2024-02-28T02:06:22;5.40;99.90
30186;DHT22;31152;49.190;8.122;2024-02-28T02:08:49;5.40;99.90
30186;DHT22;31152;49.190;8.122;2024-02-28T02:11:16;5.40;99.90
30186;DHT22;31152;49.190;8.122;2024-02-28T02:13:51;5.40;99.90
30186;DHT22;31152;49.190;8.122;2024-02-28T02:16:19;5.40;99.90
30186;DHT22;31152;49.190;8.122;2024-02-28T02:18:48;5.40;99.90
30186;DHT22;31152;49.190;8.122;2024-02-28T02:21:18;5.40;99.90
30186;DHT22;31152;49.190;8.122;2024-02-28T02:23:46;5.30;99.90
30186;DHT22;31152;49.190;8.122;2024-02-28T02:26:12;5.30;99.90
30186;DHT22;31152;49.190;8.122;2024-02-28T02:28:39;5.20;99.90
30186;DHT22;31152;49.190;8.122;2024-02-28T02:31:05;5.20;99.90
30186;DHT22;31152;49.190;8.122;2024-02-28T02:33:32;5.10;99.90
30186;DHT22;31152;49.190;8.122;2024-02-28T02:35:59;5.00;99.90
30186;DHT22;31152;49.190;8.122;2024-02-28T02:38:25;4.90;99.90
30186;DHT22;31152;49.190;8.122;2024-02-28T02:40:52;4.90;99.90
30186;DHT22;31152;49.190;8.122;2024-02-28T02:43:19;4.80;99.90
30186;DHT22;31152;49.190;8.122;2024-02-28T02:45:45;4.80;99.90
30186;DHT22;31152;49.190;8.122;2024-02-28T02:48:12;4.70;99.90
30186;DHT22;31152;49.190;8.122;2024-02-28T02:50:39;4.70;99.90
30186;DHT22;31152;49.190;8.122;2024-02-28T02:53:09;4.70;99.90
30186;DHT22;31152;49.190;8.122;2024-02-28T02:55:35;4.60;99.90
30186;DHT22;31152;49.190;8.122;2024-02-28T02:58:04;4.50;99.90
30186;DHT22;31152;49.190;8.122;2024-02-28T03:00:31;4.50;99.90
30186;DHT22;31152;49.190;8.122;2024-02-28T03:02:58;4.40;99.90
30186;DHT22;31152;49.190;8.122;2024-02-28T03:05:24;4.40;99.90
30186;DHT22;31152;49.190;8.122;2024-02-28T03:07:51;4.40;99.90
30186;DHT22;31152;49.190;8.122;2024-02-28T03:10:20;4.40;99.90
30186;DHT22;31152;49.190;8.122;2024-02-28T03:12:47;4.40;99.90
30186;DHT22;31152;49.190;8.122;2024-02-28T03:15:18;4.40;99.90
30186;DHT22;31152;49.190;8.122;2024-02-28T03:17:45;4.40;99.90
30186;DHT22;31152;49.190;8.122;2024-02-28T03:20:12;4.40;99.90
30186;DHT22;31152;49.190;8.122;2024-02-28T03:22:40;4.40;99.90
30186;DHT22;31152;49.190;8.122;2024-02-28T03:25:09;4.40;99.90
30186;DHT22;31152;49.190;8.122;2024-02-28T03:27:36;4.40;99.90
30186;DHT22;31152;49.190;8.122;2024-02-28T03:30:03;4.40;99.90
30186;DHT22;31152;49.190;8.122;2024-02-28T03:32:29;4.40;99.90
30186;DHT22;31152;49.190;8.122;2024-02-28T03:34:56;4.40;99.90
30186;DHT22;31152;49.190;8.122;2024-02-28T03:37:23;4.40;99.90
30186;DHT22;31152;49.190;8.122;2024-02-28T03:39:49;4.40;99.90
30186;DHT22;31152;49.190;8.122;2024-02-28T03:42:16;4.40;99.90
30186;DHT22;31152;49.190;8.122;2024-02-28T03:44:43;4.30;99.90
30186;DHT22;31152;49.190;8.122;2024-02-28T03:47:12;4.30;99.90
30186;DHT22;31152;49.190;8.122;2024-02-28T03:49:38;4.20;99.90
30186;DHT22;31152;49.190;8.122;2024-02-28T03:52:05;4.20;99.90
30186;DHT22;31152;49.190;8.122;2024-02-28T03:54:32;4.20;99.90
30186;DHT22;31152;49.190;8.122;2024-02-28T03:56:59;4.20;99.90
30186;DHT22;31152;49.190;8.122;2024-02-28T03:59:28;4.20;99.90
30186;DHT22;31152;49.190;8.122;2024-02-28T04:01:55;4.10;99.90
30186;DHT22;31152;49.190;8.122;2024-02-28T04:04:22;4.10;99.90
30186;DHT22;31152;49.190;8.122;2024-02-28T04:06:51;4.10;99.90
30186;DHT22;31152;49.190;8.122;2024-02-28T04:09:18;4.10;99.90
30186;DHT22;31152;49.190;8.122;2024-02-28T04:11:46;4.10;99.90
30186;DHT22;31152;49.190;8.122;2024-02-28T04:14:13;4.10;99.90
30186;DHT22;31152;49.190;8.122;2024-02-28T04:16:43;4.10;99.90
30186;DHT22;31152;49.190;8.122;2024-02-28T04:19:10;4.10;99.90
30186;DHT22;31152;49.190;8.122;2024-02-28T04:21:37;4.10;99.90
30186;DHT22;31152;49.190;8.122;2024-02-28T04:24:05;4.00;99.90
30186;DHT22;31152;49.190;8.122;2024-02-28T04:26:32;4.00;99.90
30186;DHT22;31152;49.190;8.122;2024-02-28T04:28:59;4.00;99.90
30186;DHT22;31152;49.190;8.122;2024-02-28T04:31:25;4.00;99.90
30186;DHT22;31152;49.190;8.122;2024-02-28T04:33:52;3.90;99.90
30186;DHT22;31152;49.190;8.122;2024-02-28T04:36:21;3.90;99.90
30186;DHT22;31152;49.190;8.122;2024-02-28T04:38:48;3.90;99.90
30186;DHT22;31152;49.190;8.122;2024-02-28T04:41:15;3.80;99.90
30186;DHT22;31152;49.190;8.122;2024-02-28T04:43:43;3.80;99.90
30186;DHT22;31152;49.190;8.122;2024-02-28T04:46:10;3.80;99.90
30186;DHT22;31152;49.190;8.122;2024-02-28T04:48:36;3.80;99.90
30186;DHT22;31152;49.190;8.122;2024-02-28T04:51:03;3.80;99.90
30186;DHT22;31152;49.190;8.122;2024-02-28T04:53:30;3.80;99.90
30186;DHT22;31152;49.190;8.122;2024-02-28T04:55:57;3.90;99.90
30186;DHT22;31152;49.190;8.122;2024-02-28T04:58:26;3.80;99.90
30186;DHT22;31152;49.190;8.122;2024-02-28T05:00:52;3.80;99.90
30186;DHT22;31152;49.190;8.122;2024-02-28T05:03:19;3.80;99.90
30186;DHT22;31152;49.190;8.122;2024-02-28T05:05:46;3.80;99.90
30186;DHT22;31152;49.190;8.122;2024-02-28T05:08:12;3.80;99.90
30186;DHT22;31152;49.190;8.122;2024-02-28T05:10:39;3.80;99.90
30186;DHT22;31152;49.190;8.122;2024-02-28T05:13:06;3.70;99.90
30186;DHT22;31152;49.190;8.122;2024-02-28T05:15:33;3.70;99.90
30186;DHT22;31152;49.190;8.122;2024-02-28T05:18:00;3.70;99.90
30186;DHT22;31152;49.190;8.122;2024-02-28T05:20:26;3.70;99.90
30186;DHT22;31152;49.190;8.122;2024-02-28T05:22:53;3.70;99.90
30186;DHT22;31152;49.190;8.122;2024-02-28T05:25:20;3.70;99.90
30186;DHT22;31152;49.190;8.122;2024-02-28T05:27:46;3.70;99.90
30186;DHT22;31152;49.190;8.122;2024-02-28T05:30:13;3.70;99.90
30186;DHT22;31152;49.190;8.122;2024-02-28T05:32:42;3.70;99.90
30186;DHT22;31152;49.190;8.122;2024-02-28T05:35:09;3.60;99.90
30186;DHT22;31152;49.190;8.122;2024-02-28T05:37:38;3.60;99.90
30186;DHT22;31152;49.190;8.122;2024-02-28T05:40:06;3.70;99.90
30186;DHT22;31152;49.190;8.122;2024-02-28T05:42:33;3.70;99.90
30186;DHT22;31152;49.190;8.122;2024-02-28T05:44:59;3.60;99.90
30186;DHT22;31152;49.190;8.122;2024-02-28T05:47:26;3.70;99.90
30186;DHT22;31152;49.190;8.122;2024-02-28T05:49:54;3.70;99.90
30186;DHT22;31152;49.190;8.122;2024-02-28T05:52:22;3.70;99.90
30186;DHT22;31152;49.190;8.122;2024-02-28T05:54:49;3.70;99.90
30186;DHT22;31152;49.190;8.122;2024-02-28T05:57:15;3.70;99.90
30186;DHT22;31152;49.190;8.122;2024-02-28T05:59:42;3.80;99.90
30186;DHT22;31152;49.190;8.122;2024-02-28T06:02:09;3.90;99.90
30186;DHT22;31152;49.190;8.122;2024-02-28T06:04:36;3.80;99.90
30186;DHT22;31152;49.190;8.122;2024-02-28T06:07:02;3.80;99.90
30186;DHT22;31152;49.190;8.122;2024-02-28T06:09:29;3.80;99.90
30186;DHT22;31152;49.190;8.122;2024-02-28T06:11:56;3.80;99.90
30186;DHT22;31152;49.190;8.122;2024-02-28T06:14:26;3.90;99.90
30186;DHT22;31152;49.190;8.122;2024-02-28T06:16:52;3.80;99.90
30186;DHT22;31152;49.190;8.122;2024-02-28T06:19:21;3.80;99.90
30186;DHT22;31152;49.190;8.122;2024-02-28T06:21:48;3.80;99.90
30186;DHT22;31152;49.190;8.122;2024-02-28T06:24:15;3.80;99.90
30186;DHT22;31152;49.190;8.122;2024-02-28T06:26:41;3.80;99.90
30186;DHT22;31152;49.190;8.122;2024-02-28T06:29:15;3.70;99.90
30186;DHT22;31152;49.190;8.122;2024-02-28T06:31:42;3.80;99.90
30186;DHT22;31152;49.190;8.122;2024-02-28T06:34:08;3.70;99.90
30186;DHT22;31152;49.190;8.122;2024-02-28T06:36:39;3.70;99.90
30186;DHT22;31152;49.190;8.122;2024-02-28T06:39:09;3.70;99.90
30186;DHT22;31152;49.190;8.122;2024-02-28T06:41:38;3.70;99.90
30186;DHT22;31152;49.190;8.122;2024-02-28T06:44:04;3.70;99.90
30186;DHT22;31152;49.190;8.122;2024-02-28T06:46:31;3.70;99.90
30186;DHT22;31152;49.190;8.122;2024-02-28T06:48:58;3.80;99.90
30186;DHT22;31152;49.190;8.122;2024-02-28T06:51:24;3.70;99.90
30186;DHT22;31152;49.190;8.122;2024-02-28T06:53:51;3.80;99.90
30186;DHT22;31152;49.190;8.122;2024-02-28T06:56:18;3.70;99.90
30186;DHT22;31152;49.190;8.122;2024-02-28T06:58:44;3.70;99.90
30186;DHT22;31152;49.190;8.122;2024-02-28T07:01:11;3.60;99.90
30186;DHT22;31152;49.190;8.122;2024-02-28T07:03:38;3.60;99.90
30186;DHT22;31152;49.190;8.122;2024-02-28T07:06:05;3.60;99.90
30186;DHT22;31152;49.190;8.122;2024-02-28T07:08:32;3.60;99.90
30186;DHT22;31152;49.190;8.122;2024-02-28T07:10:58;3.60;99.90
30186;DHT22;31152;49.190;8.122;2024-02-28T07:13:25;3.70;99.90
30186;DHT22;31152;49.190;8.122;2024-02-28T07:15:53;3.70;99.90
30186;DHT22;31152;49.190;8.122;2024-02-28T07:18:24;3.80;99.90
30186;DHT22;31152;49.190;8.122;2024-02-28T07:20:53;3.80;99.90
30186;DHT22;31152;49.190;8.122;2024-02-28T07:23:20;4.00;99.90
30186;DHT22;31152;49.190;8.122;2024-02-28T07:25:47;4.10;99.90
30186;DHT22;31152;49.190;8.122;2024-02-28T07:28:13;4.10;99.90
30186;DHT22;31152;49.190;8.122;2024-02-28T07:30:40;4.20;99.90
30186;DHT22;31152;49.190;8.122;2024-02-28T07:33:07;4.30;99.90
30186;DHT22;31152;49.190;8.122;2024-02-28T07:35:43;4.40;99.90
30186;DHT22;31152;49.190;8.122;2024-02-28T07:38:10;4.50;99.90
30186;DHT22;31152;49.190;8.122;2024-02-28T07:40:36;4.70;99.90
30186;DHT22;31152;49.190;8.122;2024-02-28T07:43:03;4.80;99.90
30186;DHT22;31152;49.190;8.122;2024-02-28T07:45:32;5.00;99.90
30186;DHT22;31152;49.190;8.122;2024-02-28T07:47:59;5.20;99.90
30186;DHT22;31152;49.190;8.122;2024-02-28T07:50:28;5.40;99.90
30186;DHT22;31152;49.190;8.122;2024-02-28T07:52:55;5.60;99.90
30186;DHT22;31152;49.190;8.122;2024-02-28T07:55:22;5.70;99.90
30186;DHT22;31152;49.190;8.122;2024-02-28T07:57:52;5.90;99.90
30186;DHT22;31152;49.190;8.122;2024-02-28T08:00:19;6.20;99.90
30186;DHT22;31152;49.190;8.122;2024-02-28T08:02:46;6.40;99.90
30186;DHT22;31152;49.190;8.122;2024-02-28T08:05:15;6.60;99.90
30186;DHT22;31152;49.190;8.122;2024-02-28T08:07:44;6.70;99.90
30186;DHT22;31152;49.190;8.122;2024-02-28T08:10:11;6.90;99.90
30186;DHT22;31152;49.190;8.122;2024-02-28T08:12:38;7.10;99.90
30186;DHT22;31152;49.190;8.122;2024-02-28T08:15:05;7.30;99.90
30186;DHT22;31152;49.190;8.122;2024-02-28T08:17:32;7.40;99.90
30186;DHT22;31152;49.190;8.122;2024-02-28T08:19:59;7.60;99.90
30186;DHT22;31152;49.190;8.122;2024-02-28T08:22:25;7.70;99.90
30186;DHT22;31152;49.190;8.122;2024-02-28T08:24:52;7.90;99.90
30186;DHT22;31152;49.190;8.122;2024-02-28T08:27:19;8.00;99.90
30186;DHT22;31152;49.190;8.122;2024-02-28T08:29:47;8.10;99.90
30186;DHT22;31152;49.190;8.122;2024-02-28T08:32:14;8.20;99.90
30186;DHT22;31152;49.190;8.122;2024-02-28T08:34:44;8.30;99.90
30186;DHT22;31152;49.190;8.122;2024-02-28T08:37:12;8.40;99.90
30186;DHT22;31152;49.190;8.122;2024-02-28T08:39:41;8.50;99.90
30186;DHT22;31152;49.190;8.122;2024-02-28T08:42:10;8.60;99.90
30186;DHT22;31152;49.190;8.122;2024-02-28T08:44:37;8.80;99.90
30186;DHT22;31152;49.190;8.122;2024-02-28T08:47:03;9.00;99.90
30186;DHT22;31152;49.190;8.122;2024-02-28T08:49:30;9.10;99.90
30186;DHT22;31152;49.190;8.122;2024-02-28T08:51:57;9.30;99.90
30186;DHT22;31152;49.190;8.122;2024-02-28T08:54:24;9.40;99.90
30186;DHT22;31152;49.190;8.122;2024-02-28T08:56:52;9.50;99.90
30186;DHT22;31152;49.190;8.122;2024-02-28T08:59:28;9.60;99.90
30186;DHT22;31152;49.190;8.122;2024-02-28T09:01:55;9.70;99.90
30186;DHT22;31152;49.190;8.122;2024-02-28T09:04:24;9.90;99.90
30186;DHT22;31152;49.190;8.122;2024-02-28T09:06:51;10.00;99.90
30186;DHT22;31152;49.190;8.122;2024-02-28T09:09:21;10.20;99.90
30186;DHT22;31152;49.190;8.122;2024-02-28T09:11:48;10.30;99.90
30186;DHT22;31152;49.190;8.122;2024-02-28T09:14:14;10.50;99.90
30186;DHT22;31152;49.190;8.122;2024-02-28T09:16:41;10.60;99.90
30186;DHT22;31152;49.190;8.122;2024-02-28T09:19:08;10.80;99.90
30186;DHT22;31152;49.190;8.122;2024-02-28T09:21:35;10.80;99.90
30186;DHT22;31152;49.190;8.122;2024-02-28T09:24:02;11.00;99.90
30186;DHT22;31152;49.190;8.122;2024-02-28T09:26:28;11.10;99.90
30186;DHT22;31152;49.190;8.122;2024-02-28T09:28:55;11.30;99.90
30186;DHT22;31152;49.190;8.122;2024-02-28T09:31:22;11.40;99.90
30186;DHT22;31152;49.190;8.122;2024-02-28T09:33:48;11.60;99.90
30186;DHT22;31152;49.190;8.122;2024-02-28T09:36:15;11.70;99.90
30186;DHT22;31152;49.190;8.122;2024-02-28T09:38:42;11.90;99.90
30186;DHT22;31152;49.190;8.122;2024-02-28T09:41:14;12.10;99.90
30186;DHT22;31152;49.190;8.122;2024-02-28T09:43:41;12.20;99.90
30186;DHT22;31152;49.190;8.122;2024-02-28T09:46:08;12.30;99.90
30186;DHT22;31152;49.190;8.122;2024-02-28T09:48:39;12.40;99.90
30186;DHT22;31152;49.190;8.122;2024-02-28T09:51:08;12.60;99.90
30186;DHT22;31152;49.190;8.122;2024-02-28T09:53:36;12.80;99.90
30186;DHT22;31152;49.190;8.122;2024-02-28T09:56:04;13.00;99.90
30186;DHT22;31152;49.190;8.122;2024-02-28T09:58:32;13.20;99.90
30186;DHT22;31152;49.190;8.122;2024-02-28T10:01:01;13.30;99.90
30186;DHT22;31152;49.190;8.122;2024-02-28T10:03:31;13.40;99.90
30186;DHT22;31152;49.190;8.122;2024-02-28T10:05:59;13.50;99.90
30186;DHT22;31152;49.190;8.122;2024-02-28T10:08:30;13.70;99.90
30186;DHT22;31152;49.190;8.122;2024-02-28T10:10:58;14.00;99.90
30186;DHT22;31152;49.190;8.122;2024-02-28T10:13:25;14.20;99.90
30186;DHT22;31152;49.190;8.122;2024-02-28T10:15:54;14.50;99.90
30186;DHT22;31152;49.190;8.122;2024-02-28T10:18:21;14.70;99.90
30186;DHT22;31152;49.190;8.122;2024-02-28T10:20:48;14.90;99.90
30186;DHT22;31152;49.190;8.122;2024-02-28T10:23:17;15.00;99.90
30186;DHT22;31152;49.190;8.122;2024-02-28T10:25:44;15.30;99.10
30186;DHT22;31152;49.190;8.122;2024-02-28T10:28:25;15.50;98.60
30186;DHT22;31152;49.190;8.122;2024-02-28T10:30:53;15.80;98.10
30186;DHT22;31152;49.190;8.122;2024-02-28T10:33:20;16.10;97.20
30186;DHT22;31152;49.190;8.122;2024-02-28T10:35:47;16.40;96.20
30186;DHT22;31152;49.190;8.122;2024-02-28T10:38:18;16.60;95.60
30186;DHT22;31152;49.190;8.122;2024-02-28T10:40:45;16.90;94.70
30186;DHT22;31152;49.190;8.122;2024-02-28T10:43:12;17.00;93.90
30186;DHT22;31152;49.190;8.122;2024-02-28T10:45:42;17.30;93.50
30186;DHT22;31152;49.190;8.122;2024-02-28T10:48:29;17.70;92.70
30186;DHT22;31152;49.190;8.122;2024-02-28T10:50:56;18.20;92.10
30186;DHT22;31152;49.190;8.122;2024-02-28T10:53:32;18.60;90.90
30186;DHT22;31152;49.190;8.122;2024-02-28T10:56:02;18.90;90.20
30186;DHT22;31152;49.190;8.122;2024-02-28T10:58:34;19.30;87.50
30186;DHT22;31152;49.190;8.122;2024-02-28T11:01:03;19.70;85.80
30186;DHT22;31152;49.190;8.122;2024-02-28T11:03:30;19.60;83.40
30186;DHT22;31152;49.190;8.122;2024-02-28T11:05:57;19.90;83.90
30186;DHT22;31152;49.190;8.122;2024-02-28T11:08:25;20.30;82.20
30186;DHT22;31152;49.190;8.122;2024-02-28T11:11:01;20.60;80.40
30186;DHT22;31152;49.190;8.122;2024-02-28T11:13:29;20.90;78.60
30186;DHT22;31152;49.190;8.122;2024-02-28T11:16:07;21.20;77.20
30186;DHT22;31152;49.190;8.122;2024-02-28T11:18:34;21.50;74.40
30186;DHT22;31152;49.190;8.122;2024-02-28T11:21:03;21.50;75.00
30186;DHT22;31152;49.190;8.122;2024-02-28T11:23:35;21.90;72.70
30186;DHT22;31152;49.190;8.122;2024-02-28T11:26:03;22.10;71.40
30186;DHT22;31152;49.190;8.122;2024-02-28T11:28:30;22.30;70.30
30186;DHT22;31152;49.190;8.122;2024-02-28T11:30:56;22.50;68.70
30186;DHT22;31152;49.190;8.122;2024-02-28T11:33:23;22.70;67.40
30186;DHT22;31152;49.190;8.122;2024-02-28T11:35:54;22.90;67.60
30186;DHT22;31152;49.190;8.122;2024-02-28T11:38:20;23.00;65.00
30186;DHT22;31152;49.190;8.122;2024-02-28T11:40:48;22.90;65.30
30186;DHT22;31152;49.190;8.122;2024-02-28T11:43:15;23.00;65.10
30186;DHT22;31152;49.190;8.122;2024-02-28T11:45:42;23.00;64.80
30186;DHT22;31152;49.190;8.122;2024-02-28T11:48:10;22.90;63.30
30186;DHT22;31152;49.190;8.122;2024-02-28T11:50:39;22.30;63.90
30186;DHT22;31152;49.190;8.122;2024-02-28T11:53:06;22.20;64.80
30186;DHT22;31152;49.190;8.122;2024-02-28T11:55:33;22.50;63.80
30186;DHT22;31152;49.190;8.122;2024-02-28T11:58:00;22.80;62.90
30186;DHT22;31152;49.190;8.122;2024-02-28T12:00:27;23.00;61.90
30186;DHT22;31152;49.190;8.122;2024-02-28T12:03:03;23.20;60.10
30186;DHT22;31152;49.190;8.122;2024-02-28T12:05:33;22.90;60.60
30186;DHT22;31152;49.190;8.122;2024-02-28T12:08:00;22.90;60.90
30186;DHT22;31152;49.190;8.122;2024-02-28T12:10:27;22.90;60.20
30186;DHT22;31152;49.190;8.122;2024-02-28T12:12:54;23.00;59.90
30186;DHT22;31152;49.190;8.122;2024-02-28T12:15:25;23.30;59.70
30186;DHT22;31152;49.190;8.122;2024-02-28T12:17:52;23.70;57.90
30186;DHT22;31152;49.190;8.122;2024-02-28T12:20:18;23.90;58.50
30186;DHT22;31152;49.190;8.122;2024-02-28T12:22:45;24.10;57.30
30186;DHT22;31152;49.190;8.122;2024-02-28T12:25:12;24.30;56.80
30186;DHT22;31152;49.190;8.122;2024-02-28T12:27:42;24.50;56.60
30186;DHT22;31152;49.190;8.122;2024-02-28T12:30:08;24.70;54.80
30186;DHT22;31152;49.190;8.122;2024-02-28T12:32:35;24.60;53.90
30186;DHT22;31152;49.190;8.122;2024-02-28T12:35:05;24.60;54.30
30186;DHT22;31152;49.190;8.122;2024-02-28T12:37:31;24.40;54.60
30186;DHT22;31152;49.190;8.122;2024-02-28T12:39:58;24.60;54.10
30186;DHT22;31152;49.190;8.122;2024-02-28T12:42:25;24.80;53.90
30186;DHT22;31152;49.190;8.122;2024-02-28T12:44:52;25.10;53.20
30186;DHT22;31152;49.190;8.122;2024-02-28T12:47:19;25.40;53.10
30186;DHT22;31152;49.190;8.122;2024-02-28T12:49:46;25.60;53.50
30186;DHT22;31152;49.190;8.122;2024-02-28T12:52:13;26.00;53.50
30186;DHT22;31152;49.190;8.122;2024-02-28T12:54:39;26.20;51.10
30186;DHT22;31152;49.190;8.122;2024-02-28T12:57:06;26.20;51.50
30186;DHT22;31152;49.190;8.122;2024-02-28T12:59:35;26.40;51.00
30186;DHT22;31152;49.190;8.122;2024-02-28T13:02:02;26.50;50.50
30186;DHT22;31152;49.190;8.122;2024-02-28T13:04:29;26.40;49.10
30186;DHT22;31152;49.190;8.122;2024-02-28T13:06:56;25.90;49.50
30186;DHT22;31152;49.190;8.122;2024-02-28T13:09:26;25.60;49.00
30186;DHT22;31152;49.190;8.122;2024-02-28T13:11:53;25.50;50.10
30186;DHT22;31152;49.190;8.122;2024-02-28T13:14:20;25.70;50.90
30186;DHT22;31152;49.190;8.122;2024-02-28T13:16:47;26.10;50.20
30186;DHT22;31152;49.190;8.122;2024-02-28T13:19:17;26.00;48.80
30186;DHT22;31152;49.190;8.122;2024-02-28T13:21:44;26.00;48.80
30186;DHT22;31152;49.190;8.122;2024-02-28T13:24:14;26.10;49.30
30186;DHT22;31152;49.190;8.122;2024-02-28T13:26:43;26.30;48.30
30186;DHT22;31152;49.190;8.122;2024-02-28T13:29:10;26.40;47.70
30186;DHT22;31152;49.190;8.122;2024-02-28T13:31:39;26.40;47.20
30186;DHT22;31152;49.190;8.122;2024-02-28T13:34:06;26.50;48.10
30186;DHT22;31152;49.190;8.122;2024-02-28T13:36:33;26.60;47.90
30186;DHT22;31152;49.190;8.122;2024-02-28T13:39:03;26.30;48.00
30186;DHT22;31152;49.190;8.122;2024-02-28T13:41:30;25.80;47.70
30186;DHT22;31152;49.190;8.122;2024-02-28T13:43:57;25.50;48.30
30186;DHT22;31152;49.190;8.122;2024-02-28T13:46:24;25.40;48.40
30186;DHT22;31152;49.190;8.122;2024-02-28T13:48:51;25.40;49.00
30186;DHT22;31152;49.190;8.122;2024-02-28T13:51:18;25.40;48.40
30186;DHT22;31152;49.190;8.122;2024-02-28T13:53:45;25.40;48.70
30186;DHT22;31152;49.190;8.122;2024-02-28T13:56:12;25.60;47.90
30186;DHT22;31152;49.190;8.122;2024-02-28T13:58:39;25.80;47.30
30186;DHT22;31152;49.190;8.122;2024-02-28T14:01:18;25.80;47.00
30186;DHT22;31152;49.190;8.122;2024-02-28T14:03:46;26.10;46.40
30186;DHT22;31152;49.190;8.122;2024-02-28T14:06:15;26.30;45.40
30186;DHT22;31152;49.190;8.122;2024-02-28T14:08:42;26.40;45.40
30186;DHT22;31152;49.190;8.122;2024-02-28T14:11:09;26.60;45.20
30186;DHT22;31152;49.190;8.122;2024-02-28T14:13:37;26.80;45.40
30186;DHT22;31152;49.190;8.122;2024-02-28T14:16:06;26.90;44.60
30186;DHT22;31152;49.190;8.122;2024-02-28T14:18:34;26.90;44.90
30186;DHT22;31152;49.190;8.122;2024-02-28T14:21:02;27.10;44.40
30186;DHT22;31152;49.190;8.122;2024-02-28T14:23:33;27.20;44.00
30186;DHT22;31152;49.190;8.122;2024-02-28T14:26:02;27.00;44.20
30186;DHT22;31152;49.190;8.122;2024-02-28T14:28:30;26.90;44.60
30186;DHT22;31152;49.190;8.122;2024-02-28T14:30:57;26.80;45.60
30186;DHT22;31152;49.190;8.122;2024-02-28T14:33:24;26.40;45.80
30186;DHT22;31152;49.190;8.122;2024-02-28T14:35:51;26.00;46.30
30186;DHT22;31152;49.190;8.122;2024-02-28T14:38:18;25.50;45.40
30186;DHT22;31152;49.190;8.122;2024-02-28T14:40:46;25.30;46.90
30186;DHT22;31152;49.190;8.122;2024-02-28T14:43:15;25.20;46.50
30186;DHT22;31152;49.190;8.122;2024-02-28T14:45:44;24.90;46.50
30186;DHT22;31152;49.190;8.122;2024-02-28T14:48:11;24.50;46.40
30186;DHT22;31152;49.190;8.122;2024-02-28T14:50:39;24.20;46.60
30186;DHT22;31152;49.190;8.122;2024-02-28T14:53:06;23.90;46.20
30186;DHT22;31152;49.190;8.122;2024-02-28T14:55:32;23.40;47.50
30186;DHT22;31152;49.190;8.122;2024-02-28T14:58:04;22.80;49.10
30186;DHT22;31152;49.190;8.122;2024-02-28T15:00:31;22.40;50.10
30186;DHT22;31152;49.190;8.122;2024-02-28T15:02:58;21.90;51.40
30186;DHT22;31152;49.190;8.122;2024-02-28T15:05:25;21.20;51.00
30186;DHT22;31152;49.190;8.122;2024-02-28T15:07:52;20.70;53.20
30186;DHT22;31152;49.190;8.122;2024-02-28T15:10:21;20.20;54.00
30186;DHT22;31152;49.190;8.122;2024-02-28T15:12:51;19.80;54.80
30186;DHT22;31152;49.190;8.122;2024-02-28T15:15:18;19.50;55.70
30186;DHT22;31152;49.190;8.122;2024-02-28T15:17:47;19.30;56.00
30186;DHT22;31152;49.190;8.122;2024-02-28T15:20:14;19.10;56.40
30186;DHT22;31152;49.190;8.122;2024-02-28T15:22:41;18.80;57.30
30186;DHT22;31152;49.190;8.122;2024-02-28T15:25:12;18.80;57.50
30186;DHT22;31152;49.190;8.122;2024-02-28T15:27:39;18.70;57.30
30186;DHT22;31152;49.190;8.122;2024-02-28T15:30:09;18.70;57.70
30186;DHT22;31152;49.190;8.122;2024-02-28T15:32:36;18.90;57.40
30186;DHT22;31152;49.190;8.122;2024-02-28T15:35:10;19.20;55.90
30186;DHT22;31152;49.190;8.122;2024-02-28T15:37:37;19.20;54.30
30186;DHT22;31152;49.190;8.122;2024-02-28T15:40:04;19.40;54.30
30186;DHT22;31152;49.190;8.122;2024-02-28T15:42:33;19.40;54.60